sensor_id;sensor_type;location;lat;lon;timestamp;P1;durP1;ratioP1;P2;durP2;ratioP2
55672;SDS011;41554;45.366;20.400;2022-07-29T00:00:47;24.05;;;14.55;;
55672;SDS011;41554;45.366;20.400;2022-07-29T00:03:13;15.18;;;10.05;;
55672;SDS011;41554;45.366;20.400;2022-07-29T00:05:39;12.60;;;10.05;;
55672;SDS011;41554;45.366;20.400;2022-07-29T00:08:06;11.23;;;8.45;;
55672;SDS011;41554;45.366;20.400;2022-07-29T00:10:32;15.05;;;8.52;;
55672;SDS011;41554;45.366;20.400;2022-07-29T00:12:58;11.23;;;8.07;;
55672;SDS011;41554;45.366;20.400;2022-07-29T00:15:24;9.77;;;7.75;;
55672;SDS011;41554;45.366;20.400;2022-07-29T00:17:51;6.80;;;6.03;;
55672;SDS011;41554;45.366;20.400;2022-07-29T00:20:17;8.95;;;8.02;;
55672;SDS011;41554;45.366;20.400;2022-07-29T00:22:43;11.07;;;7.07;;
55672;SDS011;41554;45.366;20.400;2022-07-29T00:25:09;10.90;;;8.15;;
55672;SDS011;41554;45.366;20.400;2022-07-29T00:27:35;7.75;;;6.57;;
55672;SDS011;41554;45.366;20.400;2022-07-29T00:30:02;9.20;;;7.72;;
55672;SDS011;41554;45.366;20.400;2022-07-29T00:32:29;12.13;;;7.60;;
55672;SDS011;41554;45.366;20.400;2022-07-29T00:34:55;9.55;;;6.45;;
55672;SDS011;41554;45.366;20.400;2022-07-29T00:37:40;7.68;;;6.18;;
55672;SDS011;41554;45.366;20.400;2022-07-29T00:40:06;12.63;;;7.03;;
55672;SDS011;41554;45.366;20.400;2022-07-29T00:42:42;10.88;;;7.40;;
55672;SDS011;41554;45.366;20.400;2022-07-29T00:45:08;7.03;;;6.28;;
55672;SDS011;41554;45.366;20.400;2022-07-29T00:47:35;6.88;;;6.18;;
55672;SDS011;41554;45.366;20.400;2022-07-29T00:50:01;8.05;;;6.50;;
55672;SDS011;41554;45.366;20.400;2022-07-29T00:52:27;8.75;;;7.68;;
55672;SDS011;41554;45.366;20.400;2022-07-29T00:54:53;8.80;;;7.75;;
55672;SDS011;41554;45.366;20.400;2022-07-29T00:57:19;7.10;;;5.65;;
55672;SDS011;41554;45.366;20.400;2022-07-29T00:59:45;8.02;;;6.65;;
55672;SDS011;41554;45.366;20.400;2022-07-29T01:02:11;10.30;;;7.88;;
55672;SDS011;41554;45.366;20.400;2022-07-29T01:04:37;11.07;;;7.10;;
55672;SDS011;41554;45.366;20.400;2022-07-29T01:07:04;10.18;;;7.25;;
55672;SDS011;41554;45.366;20.400;2022-07-29T01:09:33;8.07;;;6.63;;
55672;SDS011;41554;45.366;20.400;2022-07-29T01:12:01;16.10;;;8.35;;
55672;SDS011;41554;45.366;20.400;2022-07-29T01:14:27;8.80;;;7.22;;
55672;SDS011;41554;45.366;20.400;2022-07-29T01:19:31;9.65;;;7.00;;
55672;SDS011;41554;45.366;20.400;2022-07-29T01:21:59;7.63;;;5.88;;
55672;SDS011;41554;45.366;20.400;2022-07-29T01:27:18;7.38;;;6.00;;
55672;SDS011;41554;45.366;20.400;2022-07-29T01:29:53;12.80;;;6.32;;
55672;SDS011;41554;45.366;20.400;2022-07-29T01:32:20;8.73;;;6.38;;
55672;SDS011;41554;45.366;20.400;2022-07-29T01:34:48;9.13;;;6.55;;
55672;SDS011;41554;45.366;20.400;2022-07-29T01:37:23;11.60;;;7.95;;
55672;SDS011;41554;45.366;20.400;2022-07-29T01:39:51;9.95;;;7.22;;
55672;SDS011;41554;45.366;20.400;2022-07-29T01:45:28;10.77;;;8.85;;
55672;SDS011;41554;45.366;20.400;2022-07-29T01:50:15;10.90;;;8.65;;
55672;SDS011;41554;45.366;20.400;2022-07-29T01:52:46;10.00;;;8.02;;
55672;SDS011;41554;45.366;20.400;2022-07-29T01:55:14;7.78;;;6.80;;
55672;SDS011;41554;45.366;20.400;2022-07-29T01:57:42;9.25;;;7.15;;
55672;SDS011;41554;45.366;20.400;2022-07-29T02:00:08;10.95;;;8.20;;
55672;SDS011;41554;45.366;20.400;2022-07-29T02:02:35;11.77;;;8.80;;
55672;SDS011;41554;45.366;20.400;2022-07-29T02:05:03;12.48;;;8.18;;
55672;SDS011;41554;45.366;20.400;2022-07-29T02:07:31;11.40;;;6.65;;
55672;SDS011;41554;45.366;20.400;2022-07-29T02:09:59;12.45;;;8.82;;
55672;SDS011;41554;45.366;20.400;2022-07-29T02:12:27;14.45;;;8.20;;
55672;SDS011;41554;45.366;20.400;2022-07-29T02:14:54;14.93;;;8.93;;
55672;SDS011;41554;45.366;20.400;2022-07-29T02:17:30;10.48;;;7.88;;
55672;SDS011;41554;45.366;20.400;2022-07-29T02:20:23;18.55;;;8.32;;
55672;SDS011;41554;45.366;20.400;2022-07-29T02:22:50;13.38;;;8.82;;
55672;SDS011;41554;45.366;20.400;2022-07-29T02:25:18;9.18;;;8.15;;
55672;SDS011;41554;45.366;20.400;2022-07-29T02:27:44;19.77;;;7.68;;
55672;SDS011;41554;45.366;20.400;2022-07-29T02:30:11;12.80;;;8.18;;
55672;SDS011;41554;45.366;20.400;2022-07-29T02:32:37;12.55;;;7.20;;
55672;SDS011;41554;45.366;20.400;2022-07-29T02:35:05;10.25;;;8.95;;
55672;SDS011;41554;45.366;20.400;2022-07-29T02:37:32;12.55;;;7.28;;
55672;SDS011;41554;45.366;20.400;2022-07-29T02:40:00;14.35;;;8.73;;
55672;SDS011;41554;45.366;20.400;2022-07-29T02:42:27;12.43;;;7.97;;
55672;SDS011;41554;45.366;20.400;2022-07-29T02:44:54;23.25;;;9.77;;
55672;SDS011;41554;45.366;20.400;2022-07-29T02:47:21;11.73;;;8.82;;
55672;SDS011;41554;45.366;20.400;2022-07-29T02:49:57;13.32;;;10.27;;
55672;SDS011;41554;45.366;20.400;2022-07-29T02:52:39;15.02;;;11.27;;
55672;SDS011;41554;45.366;20.400;2022-07-29T02:58:08;19.55;;;17.35;;
55672;SDS011;41554;45.366;20.400;2022-07-29T03:00:26;28.00;;;22.60;;
55672;SDS011;41554;45.366;20.400;2022-07-29T03:02:53;28.42;;;24.02;;
55672;SDS011;41554;45.366;20.400;2022-07-29T03:05:20;27.77;;;24.45;;
55672;SDS011;41554;45.366;20.400;2022-07-29T03:07:49;32.65;;;23.45;;
55672;SDS011;41554;45.366;20.400;2022-07-29T03:10:16;32.28;;;22.25;;
55672;SDS011;41554;45.366;20.400;2022-07-29T03:12:43;21.98;;;18.75;;
55672;SDS011;41554;45.366;20.400;2022-07-29T03:15:10;22.00;;;15.25;;
55672;SDS011;41554;45.366;20.400;2022-07-29T03:17:36;17.92;;;13.15;;
55672;SDS011;41554;45.366;20.400;2022-07-29T03:20:03;10.57;;;8.38;;
55672;SDS011;41554;45.366;20.400;2022-07-29T03:22:29;12.45;;;8.45;;
55672;SDS011;41554;45.366;20.400;2022-07-29T03:24:56;11.57;;;10.10;;
55672;SDS011;41554;45.366;20.400;2022-07-29T03:27:22;11.48;;;9.23;;
55672;SDS011;41554;45.366;20.400;2022-07-29T03:29:48;19.77;;;8.27;;
55672;SDS011;41554;45.366;20.400;2022-07-29T03:32:14;11.02;;;7.68;;
55672;SDS011;41554;45.366;20.400;2022-07-29T03:34:40;12.57;;;7.03;;
55672;SDS011;41554;45.366;20.400;2022-07-29T03:37:06;13.73;;;8.85;;
55672;SDS011;41554;45.366;20.400;2022-07-29T03:39:33;17.77;;;8.90;;
55672;SDS011;41554;45.366;20.400;2022-07-29T03:42:00;12.45;;;8.73;;
55672;SDS011;41554;45.366;20.400;2022-07-29T03:44:27;11.13;;;9.02;;
55672;SDS011;41554;45.366;20.400;2022-07-29T03:46:55;9.30;;;7.45;;
55672;SDS011;41554;45.366;20.400;2022-07-29T03:49:22;12.35;;;9.25;;
55672;SDS011;41554;45.366;20.400;2022-07-29T03:51:49;25.17;;;10.05;;
55672;SDS011;41554;45.366;20.400;2022-07-29T03:54:15;10.98;;;8.07;;
55672;SDS011;41554;45.366;20.400;2022-07-29T03:56:43;13.27;;;11.15;;
55672;SDS011;41554;45.366;20.400;2022-07-29T03:59:12;14.77;;;11.23;;
55672;SDS011;41554;45.366;20.400;2022-07-29T04:01:39;15.57;;;13.20;;
55672;SDS011;41554;45.366;20.400;2022-07-29T04:04:05;20.63;;;15.55;;
55672;SDS011;41554;45.366;20.400;2022-07-29T04:06:38;24.77;;;15.23;;
55672;SDS011;41554;45.366;20.400;2022-07-29T04:09:04;16.70;;;12.45;;
55672;SDS011;41554;45.366;20.400;2022-07-29T04:11:30;14.80;;;11.23;;
55672;SDS011;41554;45.366;20.400;2022-07-29T04:13:56;12.13;;;10.45;;
55672;SDS011;41554;45.366;20.400;2022-07-29T04:16:22;14.00;;;10.60;;
55672;SDS011;41554;45.366;20.400;2022-07-29T04:18:48;10.95;;;9.55;;
55672;SDS011;41554;45.366;20.400;2022-07-29T04:21:14;14.80;;;8.80;;
55672;SDS011;41554;45.366;20.400;2022-07-29T04:23:40;10.73;;;9.30;;
55672;SDS011;41554;45.366;20.400;2022-07-29T04:26:10;12.38;;;8.70;;
55672;SDS011;41554;45.366;20.400;2022-07-29T04:28:36;11.38;;;9.35;;
55672;SDS011;41554;45.366;20.400;2022-07-29T04:31:04;14.07;;;10.60;;
55672;SDS011;41554;45.366;20.400;2022-07-29T04:33:30;11.70;;;9.13;;
55672;SDS011;41554;45.366;20.400;2022-07-29T04:35:56;15.25;;;11.30;;
55672;SDS011;41554;45.366;20.400;2022-07-29T04:38:22;16.20;;;13.05;;
55672;SDS011;41554;45.366;20.400;2022-07-29T04:40:48;24.70;;;18.45;;
55672;SDS011;41554;45.366;20.400;2022-07-29T04:43:14;10.63;;;8.80;;
55672;SDS011;41554;45.366;20.400;2022-07-29T04:45:41;14.32;;;11.13;;
55672;SDS011;41554;45.366;20.400;2022-07-29T04:48:07;20.20;;;9.70;;
55672;SDS011;41554;45.366;20.400;2022-07-29T04:50:33;15.13;;;9.82;;
55672;SDS011;41554;45.366;20.400;2022-07-29T04:52:59;11.07;;;7.95;;
55672;SDS011;41554;45.366;20.400;2022-07-29T04:55:25;15.27;;;10.95;;
55672;SDS011;41554;45.366;20.400;2022-07-29T04:57:51;36.40;;;24.33;;
55672;SDS011;41554;45.366;20.400;2022-07-29T05:00:17;32.13;;;25.60;;
55672;SDS011;41554;45.366;20.400;2022-07-29T05:02:43;42.38;;;30.83;;
55672;SDS011;41554;45.366;20.400;2022-07-29T05:05:09;63.35;;;37.78;;
55672;SDS011;41554;45.366;20.400;2022-07-29T05:07:35;101.78;;;62.13;;
55672;SDS011;41554;45.366;20.400;2022-07-29T05:10:02;58.30;;;39.30;;
55672;SDS011;41554;45.366;20.400;2022-07-29T05:12:28;62.53;;;38.35;;
55672;SDS011;41554;45.366;20.400;2022-07-29T05:14:54;95.80;;;68.85;;
55672;SDS011;41554;45.366;20.400;2022-07-29T05:17:20;52.28;;;35.10;;
55672;SDS011;41554;45.366;20.400;2022-07-29T05:19:46;22.33;;;17.27;;
55672;SDS011;41554;45.366;20.400;2022-07-29T05:22:12;50.10;;;34.65;;
55672;SDS011;41554;45.366;20.400;2022-07-29T05:24:38;36.28;;;20.77;;
55672;SDS011;41554;45.366;20.400;2022-07-29T05:27:04;34.38;;;24.27;;
55672;SDS011;41554;45.366;20.400;2022-07-29T05:29:30;40.97;;;24.27;;
55672;SDS011;41554;45.366;20.400;2022-07-29T05:31:56;72.65;;;50.10;;
55672;SDS011;41554;45.366;20.400;2022-07-29T05:34:22;93.35;;;62.13;;
55672;SDS011;41554;45.366;20.400;2022-07-29T05:36:49;48.75;;;35.72;;
55672;SDS011;41554;45.366;20.400;2022-07-29T05:39:16;90.18;;;60.33;;
55672;SDS011;41554;45.366;20.400;2022-07-29T05:41:42;64.82;;;42.50;;
55672;SDS011;41554;45.366;20.400;2022-07-29T05:44:08;38.72;;;27.80;;
55672;SDS011;41554;45.366;20.400;2022-07-29T05:46:34;53.47;;;40.88;;
55672;SDS011;41554;45.366;20.400;2022-07-29T05:49:00;48.28;;;31.88;;
55672;SDS011;41554;45.366;20.400;2022-07-29T05:51:27;28.02;;;21.48;;
55672;SDS011;41554;45.366;20.400;2022-07-29T05:53:54;34.38;;;21.48;;
55672;SDS011;41554;45.366;20.400;2022-07-29T05:56:20;36.55;;;22.33;;
55672;SDS011;41554;45.366;20.400;2022-07-29T05:58:46;46.20;;;26.88;;
55672;SDS011;41554;45.366;20.400;2022-07-29T06:01:12;46.42;;;30.08;;
55672;SDS011;41554;45.366;20.400;2022-07-29T06:03:39;44.90;;;31.40;;
55672;SDS011;41554;45.366;20.400;2022-07-29T06:06:06;46.75;;;31.45;;
55672;SDS011;41554;45.366;20.400;2022-07-29T06:08:32;37.42;;;24.55;;
55672;SDS011;41554;45.366;20.400;2022-07-29T06:10:59;25.77;;;19.65;;
55672;SDS011;41554;45.366;20.400;2022-07-29T06:13:25;41.13;;;24.90;;
55672;SDS011;41554;45.366;20.400;2022-07-29T06:15:51;30.10;;;18.50;;
55672;SDS011;41554;45.366;20.400;2022-07-29T06:18:17;19.35;;;13.50;;
55672;SDS011;41554;45.366;20.400;2022-07-29T06:20:45;10.27;;;7.22;;
55672;SDS011;41554;45.366;20.400;2022-07-29T06:23:11;20.83;;;15.20;;
55672;SDS011;41554;45.366;20.400;2022-07-29T06:25:39;14.20;;;12.57;;
55672;SDS011;41554;45.366;20.400;2022-07-29T06:28:05;13.52;;;9.45;;
55672;SDS011;41554;45.366;20.400;2022-07-29T06:30:32;15.88;;;9.52;;
55672;SDS011;41554;45.366;20.400;2022-07-29T06:32:58;25.45;;;14.45;;
55672;SDS011;41554;45.366;20.400;2022-07-29T06:35:25;15.32;;;12.38;;
55672;SDS011;41554;45.366;20.400;2022-07-29T06:37:51;23.00;;;18.38;;
55672;SDS011;41554;45.366;20.400;2022-07-29T06:40:17;18.20;;;15.30;;
55672;SDS011;41554;45.366;20.400;2022-07-29T06:43:02;10.18;;;7.95;;
55672;SDS011;41554;45.366;20.400;2022-07-29T06:45:28;14.15;;;6.75;;
55672;SDS011;41554;45.366;20.400;2022-07-29T06:47:54;8.52;;;7.35;;
55672;SDS011;41554;45.366;20.400;2022-07-29T06:50:20;5.63;;;4.38;;
55672;SDS011;41554;45.366;20.400;2022-07-29T06:52:47;6.50;;;4.68;;
55672;SDS011;41554;45.366;20.400;2022-07-29T06:55:13;12.18;;;9.18;;
55672;SDS011;41554;45.366;20.400;2022-07-29T06:57:39;8.55;;;5.53;;
55672;SDS011;41554;45.366;20.400;2022-07-29T07:00:05;25.08;;;17.48;;
55672;SDS011;41554;45.366;20.400;2022-07-29T07:02:31;12.70;;;8.13;;
55672;SDS011;41554;45.366;20.400;2022-07-29T07:04:57;8.63;;;5.43;;
55672;SDS011;41554;45.366;20.400;2022-07-29T07:07:24;6.50;;;5.15;;
55672;SDS011;41554;45.366;20.400;2022-07-29T07:09:50;12.90;;;6.65;;
55672;SDS011;41554;45.366;20.400;2022-07-29T07:12:16;5.82;;;5.03;;
55672;SDS011;41554;45.366;20.400;2022-07-29T07:14:42;21.88;;;9.52;;
55672;SDS011;41554;45.366;20.400;2022-07-29T07:17:08;19.65;;;11.00;;
55672;SDS011;41554;45.366;20.400;2022-07-29T07:19:34;9.75;;;6.60;;
55672;SDS011;41554;45.366;20.400;2022-07-29T07:22:00;18.63;;;9.15;;
55672;SDS011;41554;45.366;20.400;2022-07-29T07:24:26;45.53;;;31.42;;
55672;SDS011;41554;45.366;20.400;2022-07-29T07:26:52;9.27;;;6.32;;
55672;SDS011;41554;45.366;20.400;2022-07-29T07:29:18;8.48;;;7.03;;
55672;SDS011;41554;45.366;20.400;2022-07-29T07:31:44;23.13;;;14.65;;
55672;SDS011;41554;45.366;20.400;2022-07-29T07:34:10;32.90;;;21.55;;
55672;SDS011;41554;45.366;20.400;2022-07-29T07:36:36;7.95;;;6.63;;
55672;SDS011;41554;45.366;20.400;2022-07-29T07:39:02;12.80;;;8.82;;
55672;SDS011;41554;45.366;20.400;2022-07-29T07:41:30;8.30;;;5.88;;
55672;SDS011;41554;45.366;20.400;2022-07-29T07:43:56;7.43;;;5.57;;
55672;SDS011;41554;45.366;20.400;2022-07-29T07:46:22;7.80;;;5.30;;
55672;SDS011;41554;45.366;20.400;2022-07-29T07:48:48;10.98;;;5.60;;
55672;SDS011;41554;45.366;20.400;2022-07-29T07:51:14;7.93;;;6.47;;
55672;SDS011;41554;45.366;20.400;2022-07-29T07:53:40;8.32;;;6.22;;
55672;SDS011;41554;45.366;20.400;2022-07-29T07:56:06;7.50;;;5.78;;
55672;SDS011;41554;45.366;20.400;2022-07-29T07:58:32;13.32;;;5.50;;
55672;SDS011;41554;45.366;20.400;2022-07-29T08:01:00;8.90;;;5.70;;
55672;SDS011;41554;45.366;20.400;2022-07-29T08:03:26;6.97;;;5.82;;
55672;SDS011;41554;45.366;20.400;2022-07-29T08:05:52;5.38;;;4.80;;
55672;SDS011;41554;45.366;20.400;2022-07-29T08:08:19;10.25;;;5.70;;
55672;SDS011;41554;45.366;20.400;2022-07-29T08:10:45;8.07;;;6.20;;
55672;SDS011;41554;45.366;20.400;2022-07-29T08:13:18;12.55;;;10.15;;
55672;SDS011;41554;45.366;20.400;2022-07-29T08:15:44;9.88;;;7.50;;
55672;SDS011;41554;45.366;20.400;2022-07-29T08:18:14;8.25;;;6.95;;
55672;SDS011;41554;45.366;20.400;2022-07-29T08:20:39;8.55;;;6.35;;
55672;SDS011;41554;45.366;20.400;2022-07-29T08:23:06;7.82;;;6.10;;
55672;SDS011;41554;45.366;20.400;2022-07-29T08:25:35;11.43;;;6.45;;
55672;SDS011;41554;45.366;20.400;2022-07-29T08:28:04;5.95;;;5.28;;
55672;SDS011;41554;45.366;20.400;2022-07-29T08:30:30;12.38;;;5.90;;
55672;SDS011;41554;45.366;20.400;2022-07-29T08:32:57;7.65;;;6.47;;
55672;SDS011;41554;45.366;20.400;2022-07-29T08:35:23;10.90;;;5.90;;
55672;SDS011;41554;45.366;20.400;2022-07-29T08:37:50;8.10;;;5.85;;
55672;SDS011;41554;45.366;20.400;2022-07-29T08:40:16;8.13;;;6.63;;
55672;SDS011;41554;45.366;20.400;2022-07-29T08:42:42;26.67;;;7.32;;
55672;SDS011;41554;45.366;20.400;2022-07-29T08:45:08;8.43;;;6.57;;
55672;SDS011;41554;45.366;20.400;2022-07-29T08:47:34;6.85;;;5.80;;
55672;SDS011;41554;45.366;20.400;2022-07-29T08:50:07;10.05;;;5.72;;
55672;SDS011;41554;45.366;20.400;2022-07-29T08:52:35;11.82;;;6.43;;
55672;SDS011;41554;45.366;20.400;2022-07-29T08:55:02;9.38;;;6.38;;
55672;SDS011;41554;45.366;20.400;2022-07-29T08:57:28;16.70;;;12.38;;
55672;SDS011;41554;45.366;20.400;2022-07-29T08:59:55;26.15;;;16.13;;
55672;SDS011;41554;45.366;20.400;2022-07-29T09:02:24;11.68;;;9.18;;
55672;SDS011;41554;45.366;20.400;2022-07-29T09:04:55;9.45;;;8.30;;
55672;SDS011;41554;45.366;20.400;2022-07-29T09:07:24;9.85;;;6.60;;
55672;SDS011;41554;45.366;20.400;2022-07-29T09:09:50;12.05;;;7.28;;
55672;SDS011;41554;45.366;20.400;2022-07-29T09:12:16;7.38;;;6.45;;
55672;SDS011;41554;45.366;20.400;2022-07-29T09:14:42;6.75;;;5.57;;
55672;SDS011;41554;45.366;20.400;2022-07-29T09:17:08;7.38;;;6.05;;
55672;SDS011;41554;45.366;20.400;2022-07-29T09:19:35;8.25;;;6.38;;
55672;SDS011;41554;45.366;20.400;2022-07-29T09:22:03;9.68;;;7.60;;
55672;SDS011;41554;45.366;20.400;2022-07-29T09:27:07;8.73;;;6.82;;
55672;SDS011;41554;45.366;20.400;2022-07-29T09:29:35;10.27;;;7.10;;
55672;SDS011;41554;45.366;20.400;2022-07-29T09:32:05;13.38;;;7.53;;
55672;SDS011;41554;45.366;20.400;2022-07-29T09:34:32;9.02;;;7.05;;
55672;SDS011;41554;45.366;20.400;2022-07-29T09:36:57;9.57;;;7.50;;
55672;SDS011;41554;45.366;20.400;2022-07-29T09:39:31;12.52;;;8.85;;
55672;SDS011;41554;45.366;20.400;2022-07-29T09:42:05;17.77;;;9.63;;
55672;SDS011;41554;45.366;20.400;2022-07-29T09:44:47;10.57;;;9.48;;
55672;SDS011;41554;45.366;20.400;2022-07-29T09:47:16;11.23;;;8.35;;
55672;SDS011;41554;45.366;20.400;2022-07-29T09:49:55;10.70;;;8.30;;
55672;SDS011;41554;45.366;20.400;2022-07-29T09:52:26;12.65;;;9.15;;
55672;SDS011;41554;45.366;20.400;2022-07-29T09:54:52;10.98;;;8.13;;
55672;SDS011;41554;45.366;20.400;2022-07-29T09:57:28;8.48;;;6.68;;
55672;SDS011;41554;45.366;20.400;2022-07-29T09:59:58;23.13;;;11.43;;
55672;SDS011;41554;45.366;20.400;2022-07-29T10:02:28;18.98;;;11.80;;
55672;SDS011;41554;45.366;20.400;2022-07-29T10:04:54;11.80;;;7.55;;
55672;SDS011;41554;45.366;20.400;2022-07-29T10:07:21;24.13;;;15.10;;
55672;SDS011;41554;45.366;20.400;2022-07-29T10:09:53;35.05;;;24.85;;
55672;SDS011;41554;45.366;20.400;2022-07-29T10:12:20;21.50;;;16.60;;
55672;SDS011;41554;45.366;20.400;2022-07-29T10:14:46;12.80;;;10.23;;
55672;SDS011;41554;45.366;20.400;2022-07-29T10:17:12;10.35;;;9.20;;
55672;SDS011;41554;45.366;20.400;2022-07-29T10:19:39;11.05;;;7.68;;
55672;SDS011;41554;45.366;20.400;2022-07-29T10:22:07;13.07;;;8.07;;
55672;SDS011;41554;45.366;20.400;2022-07-29T10:24:33;8.68;;;7.40;;
55672;SDS011;41554;45.366;20.400;2022-07-29T10:27:01;10.85;;;8.15;;
55672;SDS011;41554;45.366;20.400;2022-07-29T10:29:27;15.95;;;11.15;;
55672;SDS011;41554;45.366;20.400;2022-07-29T10:32:07;14.87;;;10.03;;
55672;SDS011;41554;45.366;20.400;2022-07-29T10:37:22;15.68;;;9.80;;
55672;SDS011;41554;45.366;20.400;2022-07-29T10:39:56;10.73;;;8.75;;
55672;SDS011;41554;45.366;20.400;2022-07-29T10:42:27;17.13;;;8.60;;
55672;SDS011;41554;45.366;20.400;2022-07-29T10:44:54;11.63;;;7.43;;
55672;SDS011;41554;45.366;20.400;2022-07-29T10:49:59;20.92;;;7.45;;
55672;SDS011;41554;45.366;20.400;2022-07-29T10:52:51;12.45;;;10.38;;
55672;SDS011;41554;45.366;20.400;2022-07-29T10:55:30;10.75;;;8.75;;
55672;SDS011;41554;45.366;20.400;2022-07-29T11:00:38;8.55;;;7.53;;
55672;SDS011;41554;45.366;20.400;2022-07-29T11:03:04;7.97;;;7.15;;
55672;SDS011;41554;45.366;20.400;2022-07-29T11:05:30;19.55;;;14.48;;
55672;SDS011;41554;45.366;20.400;2022-07-29T11:08:17;19.20;;;11.90;;
55672;SDS011;41554;45.366;20.400;2022-07-29T11:10:45;18.00;;;11.52;;
55672;SDS011;41554;45.366;20.400;2022-07-29T11:13:12;10.52;;;9.48;;
55672;SDS011;41554;45.366;20.400;2022-07-29T11:18:19;17.33;;;11.02;;
55672;SDS011;41554;45.366;20.400;2022-07-29T11:20:46;16.85;;;13.13;;
55672;SDS011;41554;45.366;20.400;2022-07-29T11:23:19;11.68;;;10.48;;
55672;SDS011;41554;45.366;20.400;2022-07-29T11:25:54;21.27;;;13.13;;
55672;SDS011;41554;45.366;20.400;2022-07-29T11:31:42;10.30;;;8.93;;
55672;SDS011;41554;45.366;20.400;2022-07-29T11:34:16;11.55;;;8.95;;
55672;SDS011;41554;45.366;20.400;2022-07-29T11:39:46;16.35;;;9.60;;
55672;SDS011;41554;45.366;20.400;2022-07-29T11:47:31;11.40;;;9.82;;
55672;SDS011;41554;45.366;20.400;2022-07-29T11:49:59;8.77;;;7.95;;
55672;SDS011;41554;45.366;20.400;2022-07-29T11:55:11;13.30;;;9.30;;
55672;SDS011;41554;45.366;20.400;2022-07-29T11:57:49;9.88;;;8.77;;
55672;SDS011;41554;45.366;20.400;2022-07-29T12:03:04;10.52;;;9.20;;
55672;SDS011;41554;45.366;20.400;2022-07-29T12:05:35;11.63;;;8.85;;
55672;SDS011;41554;45.366;20.400;2022-07-29T12:10:31;15.03;;;10.03;;
55672;SDS011;41554;45.366;20.400;2022-07-29T12:12:58;11.00;;;9.65;;
55672;SDS011;41554;45.366;20.400;2022-07-29T12:15:24;12.65;;;9.82;;
55672;SDS011;41554;45.366;20.400;2022-07-29T12:17:51;18.10;;;9.88;;
55672;SDS011;41554;45.366;20.400;2022-07-29T12:20:24;18.50;;;15.23;;
55672;SDS011;41554;45.366;20.400;2022-07-29T12:22:51;14.85;;;11.35;;
55672;SDS011;41554;45.366;20.400;2022-07-29T12:25:18;9.57;;;8.57;;
55672;SDS011;41554;45.366;20.400;2022-07-29T12:27:45;11.00;;;9.27;;
55672;SDS011;41554;45.366;20.400;2022-07-29T12:30:13;10.80;;;9.43;;
55672;SDS011;41554;45.366;20.400;2022-07-29T12:37:37;14.02;;;9.98;;
55672;SDS011;41554;45.366;20.400;2022-07-29T12:40:06;12.45;;;9.98;;
55672;SDS011;41554;45.366;20.400;2022-07-29T12:42:33;12.95;;;9.80;;
55672;SDS011;41554;45.366;20.400;2022-07-29T12:44:59;10.50;;;8.55;;
55672;SDS011;41554;45.366;20.400;2022-07-29T12:47:26;9.05;;;7.75;;
55672;SDS011;41554;45.366;20.400;2022-07-29T12:50:14;12.68;;;8.82;;
55672;SDS011;41554;45.366;20.400;2022-07-29T12:52:43;9.98;;;7.75;;
55672;SDS011;41554;45.366;20.400;2022-07-29T12:55:09;9.65;;;8.65;;
55672;SDS011;41554;45.366;20.400;2022-07-29T12:57:45;13.68;;;9.50;;
55672;SDS011;41554;45.366;20.400;2022-07-29T13:00:12;9.82;;;7.47;;
55672;SDS011;41554;45.366;20.400;2022-07-29T13:02:39;11.82;;;8.52;;
55672;SDS011;41554;45.366;20.400;2022-07-29T13:05:06;10.90;;;8.68;;
55672;SDS011;41554;45.366;20.400;2022-07-29T13:07:37;8.45;;;7.53;;
55672;SDS011;41554;45.366;20.400;2022-07-29T13:10:11;10.73;;;8.88;;
55672;SDS011;41554;45.366;20.400;2022-07-29T13:12:38;8.13;;;7.32;;
55672;SDS011;41554;45.366;20.400;2022-07-29T13:15:14;9.10;;;8.00;;
55672;SDS011;41554;45.366;20.400;2022-07-29T13:17:43;9.85;;;7.68;;
55672;SDS011;41554;45.366;20.400;2022-07-29T13:20:10;8.88;;;7.97;;
55672;SDS011;41554;45.366;20.400;2022-07-29T13:22:41;10.70;;;7.30;;
55672;SDS011;41554;45.366;20.400;2022-07-29T13:25:08;9.40;;;7.53;;
55672;SDS011;41554;45.366;20.400;2022-07-29T13:27:37;10.00;;;7.88;;
55672;SDS011;41554;45.366;20.400;2022-07-29T13:32:29;17.13;;;8.27;;
55672;SDS011;41554;45.366;20.400;2022-07-29T13:34:56;9.98;;;8.10;;
55672;SDS011;41554;45.366;20.400;2022-07-29T13:37:22;9.45;;;7.43;;
55672;SDS011;41554;45.366;20.400;2022-07-29T13:39:48;10.95;;;8.95;;
55672;SDS011;41554;45.366;20.400;2022-07-29T13:42:14;10.27;;;7.75;;
55672;SDS011;41554;45.366;20.400;2022-07-29T13:44:40;10.10;;;8.30;;
55672;SDS011;41554;45.366;20.400;2022-07-29T13:47:07;8.25;;;7.38;;
55672;SDS011;41554;45.366;20.400;2022-07-29T13:49:34;12.00;;;8.30;;
55672;SDS011;41554;45.366;20.400;2022-07-29T13:52:00;9.93;;;7.32;;
55672;SDS011;41554;45.366;20.400;2022-07-29T13:54:26;8.57;;;7.40;;
55672;SDS011;41554;45.366;20.400;2022-07-29T13:56:52;9.60;;;7.80;;
55672;SDS011;41554;45.366;20.400;2022-07-29T13:59:18;12.55;;;8.18;;
55672;SDS011;41554;45.366;20.400;2022-07-29T14:01:44;8.05;;;7.05;;
55672;SDS011;41554;45.366;20.400;2022-07-29T14:04:10;8.88;;;7.13;;
55672;SDS011;41554;45.366;20.400;2022-07-29T14:06:37;12.20;;;7.43;;
55672;SDS011;41554;45.366;20.400;2022-07-29T14:09:03;8.73;;;7.65;;
55672;SDS011;41554;45.366;20.400;2022-07-29T14:11:35;8.93;;;7.95;;
55672;SDS011;41554;45.366;20.400;2022-07-29T14:14:03;11.00;;;7.80;;
55672;SDS011;41554;45.366;20.400;2022-07-29T14:16:29;17.80;;;10.95;;
55672;SDS011;41554;45.366;20.400;2022-07-29T14:18:55;8.40;;;7.22;;
55672;SDS011;41554;45.366;20.400;2022-07-29T14:21:21;12.68;;;8.40;;
55672;SDS011;41554;45.366;20.400;2022-07-29T14:23:47;8.52;;;6.88;;
55672;SDS011;41554;45.366;20.400;2022-07-29T14:26:13;10.43;;;9.23;;
55672;SDS011;41554;45.366;20.400;2022-07-29T14:28:39;10.40;;;8.10;;
55672;SDS011;41554;45.366;20.400;2022-07-29T14:31:05;13.35;;;9.98;;
55672;SDS011;41554;45.366;20.400;2022-07-29T14:33:31;13.05;;;7.93;;
55672;SDS011;41554;45.366;20.400;2022-07-29T14:35:57;8.63;;;7.00;;
55672;SDS011;41554;45.366;20.400;2022-07-29T14:38:23;14.27;;;7.75;;
55672;SDS011;41554;45.366;20.400;2022-07-29T14:40:49;8.82;;;7.18;;
55672;SDS011;41554;45.366;20.400;2022-07-29T14:43:15;9.88;;;7.13;;
55672;SDS011;41554;45.366;20.400;2022-07-29T14:45:41;15.30;;;13.55;;
55672;SDS011;41554;45.366;20.400;2022-07-29T14:48:08;9.80;;;8.68;;
55672;SDS011;41554;45.366;20.400;2022-07-29T14:50:34;21.33;;;18.30;;
55672;SDS011;41554;45.366;20.400;2022-07-29T14:53:00;18.30;;;13.95;;
55672;SDS011;41554;45.366;20.400;2022-07-29T14:55:26;10.27;;;8.73;;
55672;SDS011;41554;45.366;20.400;2022-07-29T14:57:52;11.00;;;7.90;;
55672;SDS011;41554;45.366;20.400;2022-07-29T15:00:19;9.07;;;7.20;;
55672;SDS011;41554;45.366;20.400;2022-07-29T15:02:46;11.80;;;7.65;;
55672;SDS011;41554;45.366;20.400;2022-07-29T15:05:12;9.30;;;7.60;;
55672;SDS011;41554;45.366;20.400;2022-07-29T15:07:38;9.57;;;7.15;;
55672;SDS011;41554;45.366;20.400;2022-07-29T15:10:04;8.07;;;6.82;;
55672;SDS011;41554;45.366;20.400;2022-07-29T15:12:30;13.70;;;10.13;;
55672;SDS011;41554;45.366;20.400;2022-07-29T15:14:56;10.65;;;8.38;;
55672;SDS011;41554;45.366;20.400;2022-07-29T15:17:23;9.20;;;7.35;;